Terminal Aerodrome Forecast
Issued by NWS

Home | Current Version | Previous Version | Text Only | Print | Product List | Glossary On
Versions: 1 2 3 4 5 6 7 8 9 10 11 12 13 14 15 16 17 18 19 20 21
000
FTUS41 KCAR 271350 AAA
TAFBHB
TAF AMD
KBHB 271350Z 2714/2812 08007KT P6SM OVC035
      TEMPO 2714/2716 6SM -FZRA
     FM271600 13009KT 5SM -RA OVC025
     FM272200 13012KT 2SM -RA OVC003
     FM280300 10009KT P6SM OVC025
     FM280800 06005KT 6SM BR OVC015=

USA.gov is the U.S. government's official web portal to all federal, state and local government web resources and services.